createdAt,value
2018-07-14T00:04:52.181Z,99.90
2018-07-14T00:07:19.781Z,99.90
2018-07-14T00:09:47.419Z,99.90
2018-07-14T00:12:15.009Z,99.90
2018-07-14T00:14:43.012Z,99.90
2018-07-14T00:17:10.696Z,99.90
2018-07-14T00:19:38.551Z,99.90
2018-07-14T00:22:06.207Z,99.90
2018-07-14T00:24:33.810Z,99.90
2018-07-14T00:27:01.437Z,99.90
2018-07-14T00:29:28.979Z,99.90
2018-07-14T00:31:56.573Z,99.90
2018-07-14T00:34:24.117Z,99.90
2018-07-14T00:36:51.677Z,99.90
2018-07-14T00:39:19.271Z,99.90
2018-07-14T00:41:46.899Z,99.90
2018-07-14T00:44:14.477Z,99.90
2018-07-14T00:46:42.107Z,99.90
2018-07-14T00:51:37.173Z,99.90
2018-07-14T00:54:04.749Z,99.90
2018-07-14T00:56:32.328Z,99.90
2018-07-14T01:01:27.446Z,99.90
2018-07-14T01:03:55.013Z,99.90
2018-07-14T01:06:22.565Z,99.90
2018-07-14T01:08:50.190Z,99.90
2018-07-14T01:11:17.770Z,99.90
2018-07-14T01:13:45.335Z,99.90
2018-07-14T01:16:12.924Z,99.90
2018-07-14T01:18:40.469Z,99.90
2018-07-14T01:21:08.069Z,99.90
2018-07-14T01:23:35.806Z,99.90
2018-07-14T01:26:03.452Z,99.90
2018-07-14T01:28:31.030Z,99.90
2018-07-14T01:30:58.764Z,99.90
2018-07-14T01:33:26.330Z,99.90
2018-07-14T01:35:53.891Z,99.90
2018-07-14T01:38:21.536Z,99.90
2018-07-14T01:40:49.137Z,99.90
2018-07-14T01:43:16.771Z,99.90
2018-07-14T01:45:44.332Z,99.90
2018-07-14T01:50:39.398Z,99.90
2018-07-14T01:53:06.998Z,99.90
2018-07-14T01:55:34.586Z,99.90
2018-07-14T01:58:02.152Z,99.90
2018-07-14T02:00:29.708Z,99.90
2018-07-14T02:02:57.222Z,99.90
2018-07-14T02:05:24.764Z,99.90
2018-07-14T02:07:52.460Z,99.90
2018-07-14T02:10:20.004Z,99.90
2018-07-14T02:12:47.546Z,99.90
2018-07-14T02:15:15.134Z,99.90
2018-07-14T02:17:42.748Z,99.90
2018-07-14T02:20:10.298Z,99.90
2018-07-14T02:22:37.879Z,99.90
2018-07-14T02:25:05.473Z,99.90
2018-07-14T02:27:33.062Z,99.90
2018-07-14T02:30:00.790Z,99.90
2018-07-14T02:32:28.354Z,99.90
2018-07-14T02:34:55.936Z,99.90
2018-07-14T02:37:23.636Z,99.90
2018-07-14T02:39:51.174Z,99.90
2018-07-14T02:42:18.747Z,99.90
2018-07-14T02:44:46.491Z,99.90
2018-07-14T02:47:14.057Z,99.90
2018-07-14T02:49:41.605Z,99.90
2018-07-14T02:52:09.597Z,99.90
2018-07-14T02:54:37.201Z,99.90
2018-07-14T02:57:04.905Z,99.90
2018-07-14T03:02:00.357Z,99.90
2018-07-14T03:04:27.936Z,99.90
2018-07-14T03:06:55.521Z,99.90
2018-07-14T03:09:23.091Z,99.90
2018-07-14T03:11:50.661Z,99.90
2018-07-14T03:14:18.233Z,99.90
2018-07-14T03:16:45.827Z,99.90
2018-07-14T03:19:13.434Z,99.90
2018-07-14T03:21:41.009Z,99.90
2018-07-14T03:24:08.613Z,99.90
2018-07-14T03:26:36.214Z,99.90
2018-07-14T03:29:03.814Z,99.90
2018-07-14T03:31:31.395Z,99.90
2018-07-14T03:33:58.977Z,99.90
2018-07-14T03:36:26.539Z,99.90
2018-07-14T03:38:54.121Z,99.90
2018-07-14T03:41:21.787Z,99.90
2018-07-14T03:43:49.417Z,99.90
2018-07-14T03:46:17.025Z,99.90
2018-07-14T03:48:44.601Z,99.90
2018-07-14T03:51:12.199Z,99.90
2018-07-14T03:53:39.781Z,99.90
2018-07-14T03:56:07.416Z,99.90
2018-07-14T03:58:35.031Z,99.90
2018-07-14T04:03:30.158Z,99.90
2018-07-14T04:05:57.785Z,99.90
2018-07-14T04:08:25.313Z,99.90
2018-07-14T04:10:52.907Z,99.90
2018-07-14T04:13:20.545Z,99.90
2018-07-14T04:15:48.151Z,99.90
2018-07-14T04:18:15.713Z,99.90
2018-07-14T04:20:43.277Z,99.90
2018-07-14T04:23:10.851Z,99.90
2018-07-14T04:25:38.453Z,99.90
2018-07-14T04:28:06.113Z,99.90
2018-07-14T04:30:33.681Z,99.90
2018-07-14T04:33:01.221Z,99.90
2018-07-14T04:35:28.877Z,99.90
2018-07-14T04:37:56.477Z,99.90
2018-07-14T04:40:24.016Z,99.90
2018-07-14T04:42:51.629Z,99.90
2018-07-14T04:45:19.185Z,99.90
2018-07-14T04:47:46.716Z,99.90
2018-07-14T04:50:14.394Z,99.90
2018-07-14T04:52:42.004Z,99.90
2018-07-14T04:55:09.615Z,99.90
2018-07-14T04:57:37.178Z,99.90
2018-07-14T05:00:04.865Z,99.90
2018-07-14T05:02:32.434Z,99.90
2018-07-14T05:04:59.999Z,99.90
2018-07-14T05:07:27.548Z,99.90
2018-07-14T05:09:55.122Z,99.90
2018-07-14T05:12:22.741Z,99.90
2018-07-14T05:14:50.456Z,99.90
2018-07-14T05:17:18.547Z,99.90
2018-07-14T05:19:46.229Z,99.90
2018-07-14T05:22:13.870Z,99.90
2018-07-14T05:24:41.437Z,99.90
2018-07-14T05:27:09.041Z,99.90
2018-07-14T05:29:36.665Z,99.90
2018-07-14T05:32:04.265Z,99.90
2018-07-14T05:36:59.477Z,99.90
2018-07-14T05:39:27.125Z,99.90
2018-07-14T05:41:54.717Z,99.90
2018-07-14T05:44:22.349Z,99.90
2018-07-14T05:46:49.986Z,99.90
2018-07-14T05:49:17.839Z,99.90
2018-07-14T05:51:45.489Z,99.90
2018-07-14T05:54:13.067Z,99.90
2018-07-14T05:56:40.719Z,99.90
2018-07-14T05:59:08.282Z,99.90
2018-07-14T06:01:35.881Z,99.90
2018-07-14T06:04:03.523Z,99.90
2018-07-14T06:06:31.121Z,99.90
2018-07-14T06:08:58.833Z,99.90
2018-07-14T06:11:26.455Z,99.90
2018-07-14T06:13:54.059Z,99.90
2018-07-14T06:16:21.653Z,99.90
2018-07-14T06:18:49.237Z,99.90
2018-07-14T06:21:16.845Z,97.70
2018-07-14T06:23:44.413Z,95.40
2018-07-14T06:28:39.605Z,91.90
2018-07-14T06:31:07.459Z,89.10
2018-07-14T06:33:35.069Z,84.90
2018-07-14T06:36:02.659Z,81.40
2018-07-14T06:38:30.274Z,77.50
2018-07-14T06:40:57.895Z,74.50
2018-07-14T06:43:25.491Z,70.90
2018-07-14T06:45:53.061Z,68.50
2018-07-14T06:48:20.627Z,65.60
2018-07-14T06:50:48.205Z,63.30
2018-07-14T06:53:15.771Z,61.30
2018-07-14T06:55:43.370Z,60.00
2018-07-14T06:58:10.952Z,58.70
2018-07-14T07:00:38.530Z,56.40
2018-07-14T07:03:06.134Z,55.10
2018-07-14T07:05:33.809Z,54.20
2018-07-14T07:08:01.372Z,54.70
2018-07-14T07:10:28.985Z,53.80
2018-07-14T07:12:56.558Z,52.20
2018-07-14T07:15:24.147Z,50.60
2018-07-14T07:17:51.708Z,49.50
2018-07-14T07:20:19.305Z,48.60
2018-07-14T07:22:46.876Z,46.90
2018-07-14T07:25:14.506Z,46.00
2018-07-14T07:27:42.110Z,46.00
2018-07-14T07:30:09.670Z,45.50
2018-07-14T07:32:37.288Z,44.60
2018-07-14T07:35:04.942Z,43.70
2018-07-14T07:37:32.618Z,41.00
2018-07-14T07:40:00.257Z,41.20
2018-07-14T07:42:27.934Z,41.30
2018-07-14T07:44:55.477Z,41.40
2018-07-14T07:47:23.087Z,41.10
2018-07-14T07:49:50.670Z,40.60
2018-07-14T07:52:18.258Z,40.30
2018-07-14T07:54:45.939Z,40.00
2018-07-14T07:57:14.197Z,39.50
2018-07-14T07:59:41.762Z,39.40
2018-07-14T08:02:09.968Z,37.90
2018-07-14T08:04:37.536Z,36.10
2018-07-14T08:07:05.640Z,35.50
2018-07-14T08:09:33.262Z,34.40
2018-07-14T08:12:00.842Z,33.30
2018-07-14T08:14:28.470Z,32.90
2018-07-14T08:16:56.137Z,32.80
2018-07-14T08:19:23.737Z,32.50
2018-07-14T08:21:51.310Z,32.40
2018-07-14T08:24:18.872Z,31.10
2018-07-14T08:26:46.403Z,30.40
2018-07-14T08:29:13.972Z,29.60
2018-07-14T08:31:41.602Z,29.10
2018-07-14T08:34:09.258Z,29.10
2018-07-14T08:36:36.922Z,28.10
2018-07-14T08:39:06.085Z,28.50
2018-07-14T08:41:33.694Z,28.40
2018-07-14T08:44:01.321Z,28.30
2018-07-14T08:46:29.201Z,28.10
2018-07-14T08:48:56.775Z,27.20
2018-07-14T08:51:24.404Z,27.40
2018-07-14T08:53:52.059Z,27.10
2018-07-14T08:56:19.609Z,26.70
2018-07-14T08:58:47.679Z,27.10
2018-07-14T09:01:15.347Z,27.60
2018-07-14T09:03:42.980Z,28.60
2018-07-14T09:06:10.469Z,29.90
2018-07-14T09:08:38.097Z,31.10
2018-07-14T09:11:05.707Z,32.30
2018-07-14T09:13:33.284Z,33.40
2018-07-14T09:16:00.929Z,34.70
2018-07-14T09:18:28.497Z,35.80
2018-07-14T09:20:56.087Z,36.90
2018-07-14T09:23:23.711Z,38.10
2018-07-14T09:25:51.237Z,38.40
2018-07-14T09:28:18.806Z,38.80
2018-07-14T09:30:46.443Z,38.80
2018-07-14T09:33:14.046Z,39.30
2018-07-14T09:35:41.658Z,39.40
2018-07-14T09:38:09.421Z,40.30
2018-07-14T09:40:37.018Z,41.00
2018-07-14T09:43:04.609Z,41.30
2018-07-14T09:45:32.460Z,40.70
2018-07-14T09:48:00.052Z,40.00
2018-07-14T09:50:27.676Z,40.20
2018-07-14T09:52:55.254Z,40.30
2018-07-14T09:55:23.230Z,40.50
2018-07-14T09:57:50.778Z,41.10
2018-07-14T10:00:24.239Z,41.10
2018-07-14T10:02:51.794Z,41.30
2018-07-14T10:05:19.378Z,41.00
2018-07-14T10:07:46.969Z,40.80
2018-07-14T10:10:14.617Z,40.70
2018-07-14T10:12:42.150Z,41.30
2018-07-14T10:15:09.758Z,41.60
2018-07-14T10:17:37.344Z,42.00
2018-07-14T10:20:05.008Z,41.10
2018-07-14T10:22:32.707Z,41.70
2018-07-14T10:25:00.330Z,40.40
2018-07-14T10:27:27.851Z,40.40
2018-07-14T10:29:55.708Z,40.40
2018-07-14T10:32:23.364Z,40.60
2018-07-14T10:34:50.952Z,40.60
2018-07-14T10:37:18.707Z,41.30
2018-07-14T10:39:46.322Z,41.20
2018-07-14T10:42:14.045Z,41.90
2018-07-14T10:44:41.543Z,42.00
2018-07-14T10:47:09.106Z,41.50
2018-07-14T10:49:36.834Z,41.80
2018-07-14T10:52:04.556Z,41.70
2018-07-14T10:54:32.088Z,41.70
2018-07-14T10:56:59.646Z,41.40
2018-07-14T10:59:27.226Z,41.20
2018-07-14T11:01:54.804Z,41.50
2018-07-14T11:04:22.361Z,41.80
2018-07-14T11:06:50.049Z,42.40
2018-07-14T11:09:17.602Z,42.60
2018-07-14T11:11:45.145Z,42.80
2018-07-14T11:14:12.708Z,43.00
2018-07-14T11:16:40.264Z,43.50
2018-07-14T11:19:07.850Z,42.80
2018-07-14T11:21:35.456Z,43.10
2018-07-14T11:24:03.091Z,43.20
2018-07-14T11:26:30.661Z,43.40
2018-07-14T11:28:58.352Z,42.90
2018-07-14T11:31:26.040Z,42.80
2018-07-14T11:33:53.608Z,43.40
2018-07-14T11:36:21.275Z,42.70
2018-07-14T11:38:48.860Z,43.00
2018-07-14T11:41:16.529Z,43.70
2018-07-14T11:43:44.185Z,43.10
2018-07-14T11:46:11.816Z,43.10
2018-07-14T11:48:39.464Z,42.80
2018-07-14T11:51:07.139Z,42.90
2018-07-14T11:53:34.707Z,42.50
2018-07-14T11:56:02.309Z,43.50
2018-07-14T11:58:29.875Z,42.90
2018-07-14T12:00:57.436Z,43.00
2018-07-14T12:05:52.647Z,42.10
2018-07-14T12:08:20.243Z,41.90
2018-07-14T12:10:47.789Z,42.00
2018-07-14T12:13:15.437Z,41.80
2018-07-14T12:15:43.032Z,41.70
2018-07-14T12:18:10.597Z,42.10
2018-07-14T12:20:38.194Z,41.80
2018-07-14T12:23:06.229Z,41.60
2018-07-14T12:25:34.006Z,41.70
2018-07-14T12:28:01.676Z,41.40
2018-07-14T12:30:29.716Z,41.70
2018-07-14T12:32:58.030Z,41.50
2018-07-14T12:35:26.263Z,42.00
2018-07-14T12:37:53.838Z,41.80
2018-07-14T12:40:21.578Z,41.40
2018-07-14T12:42:49.242Z,41.70
2018-07-14T12:47:44.320Z,41.60
2018-07-14T12:50:11.902Z,41.20
2018-07-14T12:52:39.500Z,41.40
2018-07-14T12:55:07.448Z,41.40
2018-07-14T12:57:34.979Z,41.60
2018-07-14T13:00:02.685Z,41.60
2018-07-14T13:02:30.213Z,40.50
2018-07-14T13:04:57.824Z,41.10
2018-07-14T13:07:25.426Z,40.80
2018-07-14T13:09:53.012Z,40.70
2018-07-14T13:12:20.658Z,40.40
2018-07-14T13:14:48.234Z,40.80
2018-07-14T13:17:15.889Z,41.00
2018-07-14T13:19:43.594Z,40.90
2018-07-14T13:22:11.424Z,41.20
2018-07-14T13:24:39.078Z,41.50
2018-07-14T13:27:06.837Z,41.40
2018-07-14T13:29:34.345Z,41.20
2018-07-14T13:32:01.997Z,41.10
2018-07-14T13:34:29.590Z,41.20
2018-07-14T13:36:57.174Z,41.30
2018-07-14T13:39:24.790Z,41.60
2018-07-14T13:41:52.508Z,41.50
2018-07-14T13:44:20.157Z,41.60
2018-07-14T13:46:47.753Z,41.40
2018-07-14T13:49:15.408Z,41.60
2018-07-14T13:51:45.995Z,41.70
2018-07-14T13:54:13.614Z,41.20
2018-07-14T13:56:41.203Z,41.00
2018-07-14T13:59:08.771Z,40.60
2018-07-14T14:01:36.414Z,40.80
2018-07-14T14:04:06.909Z,40.90
2018-07-14T14:06:34.514Z,40.90
2018-07-14T14:09:02.214Z,41.20
2018-07-14T14:11:29.881Z,41.50
2018-07-14T14:13:57.461Z,41.30
2018-07-14T14:16:25.037Z,41.50
2018-07-14T14:21:20.214Z,41.70
2018-07-14T14:23:47.816Z,41.30
2018-07-14T14:26:15.577Z,41.20
2018-07-14T14:28:43.275Z,41.40
2018-07-14T14:31:10.923Z,41.30
2018-07-14T14:33:38.605Z,41.70
2018-07-14T14:36:06.257Z,41.30
2018-07-14T14:38:33.862Z,41.40
2018-07-14T14:41:01.488Z,41.50
2018-07-14T14:43:29.138Z,41.90
2018-07-14T14:45:56.767Z,42.00
2018-07-14T14:48:28.744Z,42.00
2018-07-14T14:50:57.016Z,41.50
2018-07-14T14:53:24.638Z,41.80
2018-07-14T14:55:52.334Z,42.10
2018-07-14T14:58:19.909Z,42.30
2018-07-14T15:00:47.533Z,42.50
2018-07-14T15:03:15.130Z,41.80
2018-07-14T15:05:42.713Z,41.30
2018-07-14T15:08:10.295Z,41.50
2018-07-14T15:10:37.970Z,41.40
2018-07-14T15:13:05.638Z,41.60
2018-07-14T15:15:33.192Z,41.90
2018-07-14T15:18:00.802Z,41.20
2018-07-14T15:20:28.360Z,41.60
2018-07-14T15:22:55.920Z,42.30
2018-07-14T15:25:23.534Z,41.90
2018-07-14T15:27:51.114Z,41.80
2018-07-14T15:30:18.738Z,42.60
2018-07-14T15:32:46.562Z,42.80
2018-07-14T15:35:14.062Z,42.10
2018-07-14T15:37:41.706Z,42.10
2018-07-14T15:40:09.358Z,41.40
2018-07-14T15:42:37.249Z,41.50
2018-07-14T15:45:09.299Z,41.40
2018-07-14T15:47:37.519Z,41.60
2018-07-14T15:50:05.477Z,41.60
2018-07-14T15:52:33.201Z,41.50
2018-07-14T15:55:00.859Z,41.40
2018-07-14T15:57:28.486Z,41.50
2018-07-14T15:59:55.993Z,41.80
2018-07-14T16:02:23.481Z,41.70
2018-07-14T16:04:50.966Z,42.10
2018-07-14T16:07:18.458Z,42.50
2018-07-14T16:09:46.118Z,42.40
2018-07-14T16:12:13.617Z,43.00
2018-07-14T16:14:41.176Z,42.30
2018-07-14T16:17:09.014Z,42.90
2018-07-14T16:19:36.484Z,42.50
2018-07-14T16:22:04.073Z,42.20
2018-07-14T16:24:31.589Z,42.50
2018-07-14T16:26:59.053Z,42.20
2018-07-14T16:29:26.594Z,42.50
2018-07-14T16:31:54.126Z,42.80
2018-07-14T16:34:21.649Z,42.30
2018-07-14T16:36:49.198Z,43.10
2018-07-14T16:39:16.774Z,43.50
2018-07-14T16:41:44.288Z,42.80
2018-07-14T16:44:11.806Z,42.60
2018-07-14T16:46:39.388Z,42.30
2018-07-14T16:49:06.914Z,42.60
2018-07-14T16:51:34.629Z,42.50
2018-07-14T16:54:02.326Z,42.80
2018-07-14T16:56:29.942Z,42.80
2018-07-14T16:58:57.632Z,42.80
2018-07-14T17:01:25.262Z,43.00
2018-07-14T17:03:52.888Z,43.00
2018-07-14T17:06:20.595Z,43.10
2018-07-14T17:08:48.231Z,42.60
2018-07-14T17:11:15.773Z,42.80
2018-07-14T17:13:43.380Z,42.70
2018-07-14T17:16:10.926Z,42.80
2018-07-14T17:21:06.096Z,42.70
2018-07-14T17:23:33.694Z,42.60
2018-07-14T17:26:01.746Z,42.70
2018-07-14T17:28:29.362Z,43.20
2018-07-14T17:30:56.946Z,43.20
2018-07-14T17:33:24.814Z,43.40
2018-07-14T17:35:52.423Z,43.60
2018-07-14T17:38:20.062Z,43.90
2018-07-14T17:40:47.658Z,43.80
2018-07-14T17:43:15.346Z,44.50
2018-07-14T17:45:42.916Z,43.90
2018-07-14T17:48:10.527Z,44.10
2018-07-14T17:50:38.159Z,44.30
2018-07-14T17:53:05.810Z,44.50
2018-07-14T17:55:33.469Z,44.80
2018-07-14T17:58:01.095Z,45.20
2018-07-14T18:00:28.852Z,45.30
2018-07-14T18:02:56.434Z,45.40
2018-07-14T18:05:24.109Z,45.40
2018-07-14T18:07:51.652Z,45.50
2018-07-14T18:10:19.385Z,45.80
2018-07-14T18:12:47.033Z,45.60
2018-07-14T18:15:14.603Z,45.60
2018-07-14T18:17:42.220Z,45.80
2018-07-14T18:20:09.824Z,46.00
2018-07-14T18:22:37.467Z,46.20
2018-07-14T18:25:05.572Z,46.30
2018-07-14T18:27:33.183Z,46.50
2018-07-14T18:30:00.768Z,46.80
2018-07-14T18:32:28.359Z,47.10
2018-07-14T18:34:56.061Z,47.60
2018-07-14T18:39:51.144Z,46.90
2018-07-14T18:42:18.813Z,46.70
2018-07-14T18:44:46.369Z,46.90
2018-07-14T18:47:13.975Z,46.60
2018-07-14T18:49:41.639Z,46.50
2018-07-14T18:54:36.840Z,47.00
2018-07-14T18:57:04.761Z,47.10
2018-07-14T18:59:32.374Z,47.40
2018-07-14T19:04:27.587Z,53.20
2018-07-14T19:06:55.228Z,56.10
2018-07-14T19:09:22.969Z,56.40
2018-07-14T19:11:51.813Z,59.20
2018-07-14T19:14:20.305Z,61.40
2018-07-14T19:16:48.247Z,62.90
2018-07-14T19:19:15.905Z,62.80
2018-07-14T19:21:43.518Z,60.40
2018-07-14T19:24:11.112Z,58.60
2018-07-14T19:26:38.771Z,61.90
2018-07-14T19:29:06.376Z,63.20
2018-07-14T19:31:34.028Z,62.90
2018-07-14T19:34:01.756Z,62.80
2018-07-14T19:36:29.589Z,64.10
2018-07-14T19:38:57.231Z,62.40
2018-07-14T19:41:24.875Z,60.00
2018-07-14T19:43:52.491Z,60.10
2018-07-14T19:46:20.149Z,60.20
2018-07-14T19:48:47.831Z,60.60
2018-07-14T19:51:15.521Z,57.70
2018-07-14T19:53:43.250Z,58.50
2018-07-14T19:56:10.956Z,58.70
2018-07-14T19:58:38.669Z,58.70
2018-07-14T20:01:06.746Z,58.50
2018-07-14T20:03:34.365Z,58.30
2018-07-14T20:06:01.994Z,58.40
2018-07-14T20:08:29.605Z,58.00
2018-07-14T20:10:57.213Z,58.40
2018-07-14T20:13:24.883Z,58.30
2018-07-14T20:15:52.537Z,58.30
2018-07-14T20:18:20.167Z,59.00
2018-07-14T20:20:47.748Z,59.20
2018-07-14T20:23:15.392Z,59.60
2018-07-14T20:25:43.129Z,60.20
2018-07-14T20:28:10.768Z,60.30
2018-07-14T20:33:05.913Z,61.60
2018-07-14T20:38:01.012Z,62.60
2018-07-14T20:40:28.711Z,63.10
2018-07-14T20:42:56.262Z,63.40
2018-07-14T20:45:23.899Z,64.00
2018-07-14T20:47:51.723Z,64.40
2018-07-14T20:50:19.291Z,65.60
2018-07-14T20:55:14.465Z,65.50
2018-07-14T20:57:42.073Z,65.80
2018-07-14T21:00:09.738Z,66.40
2018-07-14T21:02:37.396Z,66.60
2018-07-14T21:05:05.018Z,67.20
2018-07-14T21:07:32.639Z,67.30
2018-07-14T21:10:01.120Z,67.50
2018-07-14T21:12:28.852Z,67.70
2018-07-14T21:14:56.374Z,68.00
2018-07-14T21:17:24.564Z,68.30
2018-07-14T21:19:52.177Z,68.30
2018-07-14T21:22:19.765Z,68.50
2018-07-14T21:24:47.476Z,68.80
2018-07-14T21:27:15.078Z,69.00
2018-07-14T21:29:42.659Z,69.10
2018-07-14T21:32:10.286Z,69.20
2018-07-14T21:34:37.922Z,69.50
2018-07-14T21:37:05.521Z,69.70
2018-07-14T21:39:33.098Z,70.00
2018-07-14T21:42:00.784Z,70.20
2018-07-14T21:44:28.418Z,70.30
2018-07-14T21:46:56.062Z,70.30
2018-07-14T21:49:23.626Z,70.60
2018-07-14T21:51:51.238Z,70.70
2018-07-14T21:54:18.833Z,70.90
2018-07-14T21:56:46.644Z,71.30
2018-07-14T21:59:14.217Z,71.40
2018-07-14T22:01:47.543Z,71.70
2018-07-14T22:04:15.183Z,72.00
2018-07-14T22:06:42.877Z,73.00
2018-07-14T22:09:10.569Z,72.40
2018-07-14T22:14:05.690Z,73.10
2018-07-14T22:16:33.343Z,73.30
2018-07-14T22:19:00.881Z,73.60
2018-07-14T22:21:28.604Z,73.90
2018-07-14T22:23:56.153Z,74.20
2018-07-14T22:26:23.739Z,74.50
2018-07-14T22:28:51.395Z,74.90
2018-07-14T22:31:19.051Z,75.20
2018-07-14T22:33:46.668Z,75.40
2018-07-14T22:38:41.798Z,76.00
2018-07-14T22:41:09.394Z,76.30
2018-07-14T22:43:36.961Z,76.50
2018-07-14T22:46:05.169Z,76.90
2018-07-14T22:48:33.110Z,77.30
2018-07-14T22:51:00.742Z,77.50
2018-07-14T22:53:28.388Z,78.20
2018-07-14T22:55:55.952Z,78.20
2018-07-14T22:58:23.542Z,78.80
2018-07-14T23:00:51.298Z,79.00
2018-07-14T23:03:18.823Z,79.40
2018-07-14T23:05:46.497Z,80.10
2018-07-14T23:08:14.114Z,80.40
2018-07-14T23:10:41.666Z,80.70
2018-07-14T23:13:09.246Z,81.10
2018-07-14T23:15:36.871Z,81.50
2018-07-14T23:18:11.360Z,82.00
2018-07-14T23:20:39.081Z,82.50
2018-07-14T23:23:06.645Z,82.80
2018-07-14T23:25:34.193Z,83.50
2018-07-14T23:28:01.895Z,84.10
2018-07-14T23:30:29.522Z,84.50
2018-07-14T23:32:57.157Z,85.00
2018-07-14T23:35:24.813Z,85.60
2018-07-14T23:37:52.770Z,86.10
2018-07-14T23:42:48.085Z,87.20
2018-07-14T23:45:15.673Z,87.80
2018-07-14T23:47:43.248Z,88.30
2018-07-14T23:50:10.852Z,88.80
2018-07-14T23:52:38.453Z,89.50
2018-07-14T23:57:33.793Z,90.30
